Home > Products > Valid Products > TAF

000
FTUS42 KCAE 312100 AAC
TAFCUB
TAF AMD
KCUB 312104Z 3121/0118 VRB05KT P6SM VCSH SCT025 OVC080
      TEMPO 3121/3122 3SM SHRA BR
     FM010500 00000KT P6SM SCT015 OVC030
     FM010900 00000KT 6SM BR OVC008
     FM011400 07005KT P6SM OVC015=



000
FTUS42 KCAE 312100 AAC
TAFCAE
TAF AMD
KCAE 312102Z 3121/0118 09010KT P6SM VCSH SCT025 OVC080
      TEMPO 3121/3122 3SM SHRA BR
     FM010500 05005KT P6SM SCT015 OVC030
     FM010900 05005KT 6SM BR OVC008
     FM011400 07006KT P6SM OVC015=



000
FTUS42 KCAE 312000 AAA
TAFAGS
TAF AMD
KAGS 312026Z 3120/0118 08008KT P6SM VCSH SCT025 OVC050
     FM010500 VRB03KT 4SM BR OVC015
     FM010800 VRB03KT 4SM BR OVC007
     FM011500 05005KT P6SM OVC015=



000
FTUS42 KCAE 312000 AAA
TAFOGB
TAF AMD
KOGB 312026Z 3120/0118 08006KT P6SM VCSH SCT025 OVC080
     FM010800 VRB03KT 4SM BR OVC012
     FM011400 07006KT P6SM OVC020=



000
FTUS42 KCAE 312000 AAB
TAFCUB
TAF AMD
KCUB 312026Z 3120/0118 VRB05KT P6SM VCSH SCT025 OVC080
      TEMPO 3120/3121 13015G25KT 1SM SHRA BKN025
     FM010500 00000KT P6SM SCT015 OVC030
     FM010900 00000KT 6SM BR OVC008
     FM011400 07005KT P6SM OVC015=



000
FTUS42 KCAE 312000 AAA
TAFDNL
TAF AMD
KDNL 312026Z 3120/0118 07010KT P6SM VCSH SCT025 OVC050
     FM010500 07008KT P6SM OVC015
     FM010800 04006KT 5SM BR OVC007
     FM011500 05006KT P6SM OVC015=



000
FTUS42 KCAE 312000 AAB
TAFCAE
TAF AMD
KCAE 312026Z 3120/0118 09010KT P6SM VCSH SCT025 OVC080
      TEMPO 3120/3121 13015G30KT 2SM SHRA BKN025
     FM010500 05005KT P6SM SCT015 OVC030
     FM010900 05005KT 6SM BR OVC008
     FM011400 07006KT P6SM OVC015=



000
FTUS42 KCAE 311900 AAA
TAFCUB
TAF AMD
KCUB 311959Z 3120/0118 VRB05KT P6SM SCT028 BKN035 BKN080
      TEMPO 3120/3122 13015G25KT 1SM SHRA BKN025
     FM010500 00000KT P6SM SCT015 OVC030
     FM010900 00000KT 6SM BR OVC008
     FM011400 07005KT P6SM OVC015=



000
FTUS42 KCAE 311900 AAA
TAFCAE
TAF AMD
KCAE 311957Z 3120/0118 09010KT P6SM SCT025 BKN035 OVC080
      TEMPO 3120/3122 13015G30KT 1SM SHRA BKN025
     FM010500 05005KT P6SM SCT015 OVC030
     FM010900 05005KT 6SM BR OVC008
     FM011400 07006KT P6SM OVC015=



000
FTUS42 KCAE 311700
TAFOGB
TAF
KOGB 311730Z 3118/0118 07006KT P6SM SCT025 BKN035 OVC080
      TEMPO 3118/3121 2SM SHRA BKN025
     FM010800 VRB03KT 4SM BR OVC012
     FM011400 07006KT P6SM OVC020=



000
FTUS42 KCAE 311700
TAFCAE
TAF
KCAE 311730Z 3118/0118 09010KT P6SM SCT025 BKN035 OVC080
      TEMPO 3119/3121 2SM SHRA BKN025
     FM010500 05005KT P6SM SCT015 OVC030
     FM010900 05005KT 6SM BR OVC008
     FM011400 07006KT P6SM OVC015=



000
FTUS42 KCAE 311700
TAFCUB
TAF
KCUB 311730Z 3118/0118 VRB05KT P6SM SCT028 BKN035 BKN080
      TEMPO 3119/3121 2SM SHRA BKN025
     FM010500 00000KT P6SM SCT015 OVC030
     FM010900 00000KT 6SM BR OVC008
     FM011400 07005KT P6SM OVC015=



000
FTUS42 KCAE 311700
TAFAGS
TAF
KAGS 311730Z 3118/0118 08008KT P6SM VCSH BKN025 OVC060
      TEMPO 3118/3121 2SM SHRA
     FM312100 07008KT P6SM VCSH SCT025 OVC050
     FM010500 VRB03KT 4SM BR OVC015
     FM010800 VRB03KT 4SM BR OVC007
     FM011500 05005KT P6SM OVC015=



000
FTUS42 KCAE 311700
TAFDNL
TAF
KDNL 311730Z 3118/0118 09010KT P6SM VCSH BKN025 OVC060
      TEMPO 3118/3121 2SM SHRA
     FM312100 08010KT P6SM VCSH SCT025 OVC050
     FM010500 07008KT P6SM OVC015
     FM010800 04006KT 5SM BR OVC007
     FM011500 05006KT P6SM OVC015=



000
FTUS42 KCAE 311600 AAB
TAFDNL
TAF AMD
KDNL 311657Z 3117/0112 08008KT P6SM SCT025 OVC070
      TEMPO 3117/3119 3SM SHRA BKN025 OVC070
     FM010500 05005KT P6SM SCT015 BKN035
     FM010800 VRB03KT 6SM BR OVC007=



000
FTUS42 KCAE 311600 AAD
TAFAGS
TAF AMD
KAGS 311654Z 3117/0112 08008KT P6SM SCT025 OVC070
      TEMPO 3117/3119 3SM SHRA BKN025 OVC070
     FM010500 05005KT P6SM SCT015 OVC035
     FM010800 VRB03KT 4SM BR OVC007=



000
FTUS42 KCAE 311400 AAC
TAFAGS
TAF AMD
KAGS 311453Z 3115/0112 08006KT P6SM SCT060 OVC120
     FM311700 10008KT P6SM VCSH BKN050 OVC090
     FM010500 05005KT P6SM SCT015 OVC035
     FM010800 VRB03KT 4SM BR OVC007=



000
FTUS42 KCAE 311400 AAA
TAFCAE
TAF AMD
KCAE 311453Z 3115/0112 09008KT P6SM OVC100
     FM311900 09008KT P6SM VCSH BKN050 OVC100
     FM010500 05005KT P6SM SCT015 BKN035
     FM010900 VRB03KT 6SM BR OVC008=



000
FTUS42 KCAE 311400 AAA
TAFDNL
TAF AMD
KDNL 311453Z 3115/0112 07008KT P6SM SCT060 OVC120
     FM311700 09007KT P6SM VCSH SCT030 BKN050
     FM010500 05005KT P6SM SCT015 BKN035
     FM010800 VRB03KT 6SM BR OVC007=



000
FTUS42 KCAE 311400 AAA
TAFOGB
TAF AMD
KOGB 311453Z 3115/0112 07008KT P6SM SCT050 OVC100
     FM311800 09008KT P6SM VCSH BKN050 OVC090
     FM010500 05005KT P6SM SCT015 BKN035
     FM010800 VRB03KT 4SM BR OVC012=



000
FTUS42 KCAE 311400 AAA
TAFCUB
TAF AMD
KCUB 311453Z 3115/0112 09006KT P6SM OVC100
     FM311900 09007KT P6SM VCSH BKN050 OVC100
     FM010500 05005KT P6SM SCT015 BKN035
     FM010900 VRB03KT 6SM BR OVC008=



000
FTUS42 KCAE 311300 AAB
TAFAGS
TAF AMD
KAGS 311354Z 3114/0112 09006KT P6SM SCT080 OVC130
     FM311700 10008KT P6SM VCSH SCT030 OVC050
     FM010500 05005KT P6SM SCT015 OVC035
     FM010800 VRB03KT 4SM BR OVC007=



000
FTUS42 KCAE 311300 AAA
TAFAGS
TAF AMD
KAGS 311353Z 3114/0112 09006KT P6SM SCT080 OVC130
     FM311700 10008KT P6SM VCSH SCT030 OVC050
     FM010500 05005KT P6SM SCT015 OVC035
     FM010800 VRB03KT 4SM BR OVC007=



000
FTUS42 KCAE 311100
TAFCUB
TAF
KCUB 311120Z 3112/0112 VRB03KT P6SM BKN100
     FM311400 08006KT P6SM BKN070
     FM311900 09007KT P6SM VCSH SCT030 BKN050
     FM010500 05005KT P6SM SCT015 BKN035
     FM010900 VRB03KT 6SM BR OVC008=



000
FTUS42 KCAE 311100
TAFOGB
TAF
KOGB 311120Z 3112/0112 VRB03KT P6SM BKN090
     FM311400 08006KT P6SM BKN060
     FM311800 09007KT P6SM VCSH SCT030 BKN050
     FM010500 05005KT P6SM SCT015 BKN035
     FM010800 VRB03KT 4SM BR OVC012=



000
FTUS42 KCAE 311100
TAFAGS
TAF
KAGS 311120Z 3112/0112 VRB03KT P6SM VCSH SCT025 BKN080
      TEMPO 3112/3114 BKN025
     FM311400 08006KT P6SM SCT025 BKN060
     FM311700 09007KT P6SM VCSH SCT030 BKN050
     FM010500 05005KT P6SM SCT015 BKN035
     FM010800 VRB03KT 4SM BR OVC007=



000
FTUS42 KCAE 311100
TAFCAE
TAF
KCAE 311120Z 3112/0112 VRB03KT P6SM BKN100
     FM311400 08006KT P6SM BKN070
     FM311900 09007KT P6SM VCSH SCT030 BKN050
     FM010500 05005KT P6SM SCT015 BKN035
     FM010900 VRB03KT 6SM BR OVC008=



000
FTUS42 KCAE 311100
TAFDNL
TAF
KDNL 311120Z 3112/0112 VRB03KT P6SM VCSH SCT025 BKN080
      TEMPO 3112/3114 BKN025
     FM311400 08006KT P6SM SCT025 BKN060
     FM311700 09007KT P6SM VCSH SCT030 BKN050
     FM010500 05005KT P6SM SCT015 BKN035
     FM010800 VRB03KT 6SM BR OVC007=



000
FTUS42 KCAE 311000 AAB
TAFDNL
TAF AMD
KDNL 311023Z 3110/0106 VRB03KT P6SM SCT025 BKN080
      TEMPO 3110/3113 BKN025
     FM311400 08006KT P6SM SCT025 BKN060
     FM311700 09007KT P6SM VCSH SCT030 BKN050
     FM010500 05005KT P6SM SCT025 BKN035=



000
FTUS42 KCAE 311000 AAB
TAFAGS
TAF AMD
KAGS 311022Z 3110/0106 VRB03KT P6SM SCT025 BKN080
      TEMPO 3110/3113 BKN025
     FM311400 08006KT P6SM SCT025 BKN060
     FM311700 09007KT P6SM VCSH SCT030 BKN050
     FM010500 05005KT P6SM SCT025 BKN035=



000
FTUS42 KCAE 310800 AAA
TAFCUB
TAF AMD
KCUB 310858Z 3109/0106 VRB03KT P6SM BKN080
     FM311400 08006KT P6SM BKN070
     FM311900 09007KT P6SM VCSH SCT030 BKN050
     FM010500 05005KT P6SM SCT025 BKN035=



000
FTUS42 KCAE 310800 AAA
TAFCAE
TAF AMD
KCAE 310858Z 3109/0106 VRB03KT P6SM BKN080
     FM311400 08006KT P6SM BKN070
     FM311900 09007KT P6SM VCSH SCT030 BKN050
     FM010500 05005KT P6SM SCT025 BKN035=



000
FTUS42 KCAE 310800 AAA
TAFOGB
TAF AMD
KOGB 310858Z 3109/0106 VRB03KT P6SM BKN080
      TEMPO 3110/3113 4SM BR
     FM311400 08006KT P6SM BKN060
     FM311800 09007KT P6SM VCSH SCT030 BKN050
     FM010500 05005KT P6SM SCT025 BKN035=



000
FTUS42 KCAE 310800 AAA
TAFAGS
TAF AMD
KAGS 310858Z 3109/0106 VRB03KT P6SM BKN080
      TEMPO 3110/3113 4SM BR
     FM311400 08006KT P6SM BKN060
     FM311700 09007KT P6SM VCSH SCT030 BKN050
     FM010500 05005KT P6SM SCT025 BKN035=



000
FTUS42 KCAE 310800 AAA
TAFDNL
TAF AMD
KDNL 310858Z 3109/0106 VRB03KT P6SM BKN080
     FM311400 08006KT P6SM BKN060
     FM311700 09007KT P6SM VCSH SCT030 BKN050
     FM010500 05005KT P6SM SCT025 BKN035=



000
FTUS42 KCAE 310500
TAFDNL
TAF
KDNL 310538Z 3106/0106 VRB03KT P6SM BKN080
     FM311400 08006KT P6SM BKN060
     FM311700 09007KT P6SM VCSH SCT030 BKN050
     FM010500 05005KT P6SM SCT025 BKN035=



000
FTUS42 KCAE 310500
TAFOGB
TAF
KOGB 310538Z 3106/0106 VRB03KT P6SM BKN080
      TEMPO 3110/3113 4SM BR
     FM311400 08006KT P6SM BKN060
     FM311800 09007KT P6SM VCSH SCT030 BKN050
     FM010500 05005KT P6SM SCT025 BKN035=



000
FTUS42 KCAE 310500
TAFCAE
TAF
KCAE 310538Z 3106/0106 VRB03KT P6SM BKN080
     FM311400 08006KT P6SM BKN070
     FM311900 09007KT P6SM VCSH SCT030 BKN050
     FM010500 05005KT P6SM SCT025 BKN035=



000
FTUS42 KCAE 310500
TAFCUB
TAF
KCUB 310538Z 3106/0106 VRB03KT P6SM BKN080
     FM311400 08006KT P6SM BKN070
     FM311900 09007KT P6SM VCSH SCT030 BKN050
     FM010500 05005KT P6SM SCT025 BKN035=



000
FTUS42 KCAE 310500
TAFAGS
TAF
KAGS 310538Z 3106/0106 VRB03KT P6SM BKN080
      TEMPO 3110/3113 4SM BR
     FM311400 08006KT P6SM BKN060
     FM311700 09007KT P6SM VCSH SCT030 BKN050
     FM010500 05005KT P6SM SCT025 BKN035=



000
FTUS42 KCAE 310200 AAA
TAFCUB
TAF AMD
KCUB 310249Z 3103/3124 VRB03KT P6SM BKN070
     FM311600 12005KT P6SM SCT030 BKN050=



000
FTUS42 KCAE 310200 AAA
TAFDNL
TAF AMD
KDNL 310249Z 3103/3124 VRB04KT P6SM BKN070
     FM311600 08007KT P6SM VCSH SCT030 BKN050=



000
FTUS42 KCAE 310200 AAA
TAFCAE
TAF AMD
KCAE 310249Z 3103/3124 VRB04KT P6SM BKN070
     FM311600 10007KT P6SM SCT030 BKN050=



000
FTUS42 KCAE 310200 AAA
TAFAGS
TAF AMD
KAGS 310249Z 3103/3124 VRB06KT P6SM BKN070
     FM310900 00000KT 5SM BR SCT020 BKN060
     FM311300 08007KT P6SM VCSH SCT030 OVC050=



000
FTUS42 KCAE 310200 AAA
TAFOGB
TAF AMD
KOGB 310249Z 3103/3124 VRB04KT P6SM BKN070
     FM310900 VRB03KT 4SM BR SCT020 BKN060
     FM311300 09007KT P6SM VCSH SCT030 OVC050=



000
FTUS42 KCAE 302300 CCA
TAFDNL
TAF COR
KDNL 302332Z 3100/3124 13007KT P6SM VCSH BKN070
     FM310300 VRB04KT P6SM BKN070
     FM311600 08007KT P6SM VCSH SCT030 BKN050=



000
FTUS42 KCAE 302300
TAFCAE
TAF
KCAE 302329Z 3100/3124 VRB04KT P6SM SCT025 BKN070
     FM311600 10007KT P6SM SCT030 BKN050=



000
FTUS42 KCAE 302300
TAFDNL
TAF
KDNL 302329Z 3100/3124 VRB04KT P6SM BKN070
     FM311600 08007KT P6SM SCT030 BKN050=



000
FTUS42 KCAE 302300
TAFAGS
TAF
KAGS 302329Z 3100/3124 VRB06KT P6SM BKN070
     FM310900 00000KT 5SM BR SCT020 BKN060
     FM311300 08007KT P6SM VCSH SCT030 OVC050=



000
FTUS42 KCAE 302300
TAFCUB
TAF
KCUB 302329Z 3100/3124 VRB03KT P6SM BKN070
     FM311600 12005KT P6SM SCT030 BKN050=



000
FTUS42 KCAE 302300
TAFOGB
TAF
KOGB 302329Z 3100/3124 VRB04KT P6SM BKN070
     FM310900 VRB03KT 5SM BR SCT020 BKN060
     FM311300 09007KT P6SM VCSH SCT030 OVC050=



000
FTUS42 KCAE 302000 AAA
TAFOGB
TAF AMD
KOGB 302040Z 3021/3118 09007KT P6SM VCSH SCT030 BKN060
     FM310000 VRB03KT P6SM SCT025 BKN060
     FM310900 VRB03KT 5SM BR BKN060
     FM311300 09007KT P6SM OVC050=



000
FTUS42 KCAE 302000 AAA
TAFCAE
TAF AMD
KCAE 302040Z 3021/3118 13006KT P6SM BKN060
     FM310000 VRB04KT P6SM OVC070=



000
FTUS42 KCAE 302000 AAA
TAFCUB
TAF AMD
KCUB 302040Z 3021/3118 VRB04KT P6SM BKN060
     FM310000 VRB03KT P6SM OVC070=



000
FTUS42 KCAE 302000 AAA
TAFAGS
TAF AMD
KAGS 302040Z 3021/3118 VRB06KT P6SM BKN060
     FM310900 00000KT 5SM BR SCT020 BKN060
     FM311300 08006KT P6SM OVC050=



000
FTUS42 KCAE 302000 AAA
TAFDNL
TAF AMD
KDNL 302040Z 3021/3118 VRB06KT P6SM BKN060
     FM310900 09004KT P6SM SCT020 BKN060
     FM311300 09006KT P6SM OVC050=



000
FTUS42 KCAE 301700
TAFCAE
TAF
KCAE 301731Z 3018/3118 06006KT P6SM BKN040
     FM310000 VRB04KT P6SM OVC070=



000
FTUS42 KCAE 301700
TAFDNL
TAF
KDNL 301731Z 3018/3118 VRB06KT P6SM BKN060
      TEMPO 3018/3020 5SM SHRA BKN035 OVC060
     FM310900 09004KT P6SM SCT020 BKN060
     FM311300 09006KT P6SM OVC050=



000
FTUS42 KCAE 301700
TAFOGB
TAF
KOGB 301731Z 3018/3118 06006KT P6SM BKN045
      TEMPO 3018/3020 3SM -SHRA BKN035 OVC060
     FM310900 VRB03KT 5SM BR BKN060
     FM311300 09007KT P6SM OVC050=



000
FTUS42 KCAE 301700
TAFAGS
TAF
KAGS 301731Z 3018/3118 VRB06KT P6SM BKN060
      TEMPO 3018/3020 5SM -SHRA BKN035 OVC060
     FM310900 00000KT 5SM BR SCT020 BKN060
     FM311300 08006KT P6SM OVC050=



000
FTUS42 KCAE 301700
TAFCUB
TAF
KCUB 301731Z 3018/3118 04005KT P6SM BKN040
     FM310000 VRB03KT P6SM OVC070=



000
FTUS42 KCAE 301400 AAA
TAFOGB
TAF AMD
KOGB 301448Z 3015/3112 06005KT P6SM SCT060=



000
FTUS42 KCAE 301400 AAA
TAFAGS
TAF AMD
KAGS 301448Z 3015/3112 04005KT P6SM SCT060=



000
FTUS42 KCAE 301400 AAA
TAFCUB
TAF AMD
KCUB 301448Z 3015/3112 05005KT P6SM SCT060=



000
FTUS42 KCAE 301400 AAA
TAFDNL
TAF AMD
KDNL 301448Z 3015/3112 04006KT P6SM SCT060=



000
FTUS42 KCAE 301400 AAA
TAFCAE
TAF AMD
KCAE 301448Z 3015/3112 05005KT P6SM SCT060=



000
FTUS42 KCAE 301100
TAFOGB
TAF
KOGB 301126Z 3012/3112 05005KT P6SM SCT060=



000
FTUS42 KCAE 301100
TAFAGS
TAF
KAGS 301126Z 3012/3112 04005KT P6SM SCT060=



000
FTUS42 KCAE 301100
TAFCUB
TAF
KCUB 301126Z 3012/3112 05005KT P6SM SCT060=



000
FTUS42 KCAE 301100
TAFCAE
TAF
KCAE 301126Z 3012/3112 05005KT P6SM SCT060=



000
FTUS42 KCAE 301100
TAFDNL
TAF
KDNL 301126Z 3012/3112 04005KT P6SM SCT060=



000
FTUS42 KCAE 300800 AAA
TAFCUB
TAF AMD
KCUB 300833Z 3009/3106 VRB05KT P6SM SCT080=



000
FTUS42 KCAE 300800 AAA
TAFAGS
TAF AMD
KAGS 300833Z 3009/3106 VRB05KT P6SM SCT080=



000
FTUS42 KCAE 300800 AAA
TAFDNL
TAF AMD
KDNL 300833Z 3009/3106 VRB05KT P6SM SCT080=



000
FTUS42 KCAE 300800 AAA
TAFOGB
TAF AMD
KOGB 300833Z 3009/3106 VRB05KT P6SM SCT080=



000
FTUS42 KCAE 300800 AAA
TAFCAE
TAF AMD
KCAE 300833Z 3009/3106 VRB05KT P6SM SCT080=



000
FTUS42 KCAE 300500
TAFCAE
TAF
KCAE 300522Z 3006/3106 VRB05KT P6SM SCT080=



000
FTUS42 KCAE 300500
TAFOGB
TAF
KOGB 300522Z 3006/3106 VRB05KT P6SM SCT080=



000
FTUS42 KCAE 300500
TAFAGS
TAF
KAGS 300522Z 3006/3106 VRB05KT P6SM SCT080=



000
FTUS42 KCAE 300500
TAFCUB
TAF
KCUB 300522Z 3006/3106 VRB05KT P6SM SCT080=



000
FTUS42 KCAE 300500
TAFDNL
TAF
KDNL 300522Z 3006/3106 VRB05KT P6SM SCT080=



000
FTUS42 KCAE 300200 AAA
TAFCUB
TAF AMD
KCUB 300226Z 3002/3024 VRB05KT P6SM SCT080=



000
FTUS42 KCAE 300200 AAA
TAFOGB
TAF AMD
KOGB 300226Z 3002/3024 VRB05KT P6SM SCT080=



000
FTUS42 KCAE 300200 AAA
TAFAGS
TAF AMD
KAGS 300226Z 3002/3024 VRB05KT P6SM SCT080=



000
FTUS42 KCAE 300200 AAA
TAFCAE
TAF AMD
KCAE 300226Z 3002/3024 VRB05KT P6SM SCT080=



000
FTUS42 KCAE 300200 AAA
TAFDNL
TAF AMD
KDNL 300226Z 3002/3024 VRB05KT P6SM SCT080=



000
FTUS42 KCAE 292300
TAFDNL
TAF
KDNL 292323Z 3000/3024 VRB05KT P6SM SCT080=



000
FTUS42 KCAE 292300
TAFCAE
TAF
KCAE 292323Z 3000/3024 VRB05KT P6SM SCT080=



000
FTUS42 KCAE 292300
TAFOGB
TAF
KOGB 292323Z 3000/3024 VRB05KT P6SM SCT080=



000
FTUS42 KCAE 292300
TAFCUB
TAF
KCUB 292323Z 3000/3024 VRB05KT P6SM SCT080=



000
FTUS42 KCAE 292300
TAFAGS
TAF
KAGS 292323Z 3000/3024 VRB05KT P6SM SCT080=



000
FTUS42 KCAE 292000 AAA
TAFCUB
TAF AMD
KCUB 292026Z 2920/3018 VRB05KT P6SM SCT080=



000
FTUS42 KCAE 292000 AAA
TAFDNL
TAF AMD
KDNL 292026Z 2920/3018 VRB05KT P6SM SCT080=



000
FTUS42 KCAE 292000 AAA
TAFAGS
TAF AMD
KAGS 292026Z 2920/3018 VRB05KT P6SM SCT080=



000
FTUS42 KCAE 292000 AAA
TAFCAE
TAF AMD
KCAE 292026Z 2920/3018 VRB05KT P6SM SCT080=



000
FTUS42 KCAE 292000 AAA
TAFOGB
TAF AMD
KOGB 292026Z 2920/3018 VRB05KT P6SM SCT080=



000
FTUS42 KCAE 291700
TAFDNL
TAF
KDNL 291720Z 2918/3018 VRB05KT P6SM SCT080=



000
FTUS42 KCAE 291700
TAFCAE
TAF
KCAE 291720Z 2918/3018 VRB05KT P6SM SCT080=



000
FTUS42 KCAE 291700
TAFCUB
TAF
KCUB 291720Z 2918/3018 VRB04KT P6SM SCT080=



000
FTUS42 KCAE 291700
TAFOGB
TAF
KOGB 291720Z 2918/3018 VRB05KT P6SM SCT080=



000
FTUS42 KCAE 291700
TAFAGS
TAF
KAGS 291720Z 2918/3018 VRB05KT P6SM SCT080=



000
FTUS42 KCAE 291400 AAA
TAFAGS
TAF AMD
KAGS 291415Z 2914/3012 04008KT P6SM FEW080
     FM291800 34004KT P6SM SCT080=



000
FTUS42 KCAE 291400 AAA
TAFDNL
TAF AMD
KDNL 291415Z 2914/3012 03008KT P6SM FEW080
     FM291800 34004KT P6SM SCT080=



000
FTUS42 KCAE 291400 AAA
TAFCUB
TAF AMD
KCUB 291415Z 2914/3012 03008KT P6SM FEW080
     FM291800 VRB03KT P6SM SCT080=



000
FTUS42 KCAE 291400 AAA
TAFCAE
TAF AMD
KCAE 291415Z 2914/3012 03008KT P6SM FEW080
     FM291800 34004KT P6SM SCT080=



000
FTUS42 KCAE 291400 AAA
TAFOGB
TAF AMD
KOGB 291415Z 2914/3012 03008KT P6SM FEW080
     FM291800 34004KT P6SM SCT080=



000
FTUS42 KCAE 291100
TAFCUB
TAF
KCUB 291139Z 2912/3012 35003KT P6SM SCT080=



000
FTUS42 KCAE 291100
TAFAGS
TAF
KAGS 291139Z 2912/3012 34003KT P6SM SCT080=



000
FTUS42 KCAE 291100
TAFCAE
TAF
KCAE 291139Z 2912/3012 35004KT P6SM SCT080=



000
FTUS42 KCAE 291100
TAFDNL
TAF
KDNL 291139Z 2912/3012 34005KT P6SM SCT080=



000
FTUS42 KCAE 291100
TAFOGB
TAF
KOGB 291139Z 2912/3012 34005KT P6SM SCT080=



000
FTUS42 KCAE 290800 AAA
TAFCAE
TAF AMD
KCAE 290839Z 2909/3006 35004KT P6SM SCT080=



000
FTUS42 KCAE 290800 AAA
TAFCUB
TAF AMD
KCUB 290839Z 2909/3006 35003KT P6SM SCT080=



000
FTUS42 KCAE 290800 AAA
TAFOGB
TAF AMD
KOGB 290839Z 2909/3006 34005KT P6SM SCT080=



000
FTUS42 KCAE 290800 AAA
TAFDNL
TAF AMD
KDNL 290839Z 2909/3006 34005KT P6SM SCT080=



000
FTUS42 KCAE 290800 AAA
TAFAGS
TAF AMD
KAGS 290839Z 2909/3006 34003KT P6SM SCT080=



000
FTUS42 KCAE 290500
TAFOGB
TAF
KOGB 290529Z 2906/3006 32004KT P6SM SCT080=



000
FTUS42 KCAE 290500
TAFDNL
TAF
KDNL 290529Z 2906/3006 32004KT P6SM SCT080=



000
FTUS42 KCAE 290500
TAFCUB
TAF
KCUB 290529Z 2906/3006 33004KT P6SM SCT080=



000
FTUS42 KCAE 290500
TAFAGS
TAF
KAGS 290529Z 2906/3006 32004KT P6SM SCT080=



000
FTUS42 KCAE 290500
TAFCAE
TAF
KCAE 290529Z 2906/3006 34005KT P6SM SCT080=



000
FTUS42 KCAE 290200 AAA
TAFDNL
TAF AMD
KDNL 290230Z 2902/2924 34006KT P6SM FEW080=



000
FTUS42 KCAE 290200 AAA
TAFCAE
TAF AMD
KCAE 290230Z 2902/2924 35006KT P6SM FEW080=



000
FTUS42 KCAE 290200 AAA
TAFCUB
TAF AMD
KCUB 290230Z 2902/2924 35005KT P6SM FEW080=



000
FTUS42 KCAE 290200 AAA
TAFAGS
TAF AMD
KAGS 290230Z 2902/2924 34005KT P6SM FEW080=



000
FTUS42 KCAE 290200 AAA
TAFOGB
TAF AMD
KOGB 290230Z 2902/2924 34005KT P6SM FEW080=



000
FTUS42 KCAE 282300
TAFOGB
TAF
KOGB 282320Z 2900/2924 30009KT P6SM SCT080
     FM290600 35005KT P6SM SKC=



000
FTUS42 KCAE 282300
TAFCUB
TAF
KCUB 282320Z 2900/2924 30010KT P6SM SCT080
     FM290600 35005KT P6SM SKC=



000
FTUS42 KCAE 282300
TAFDNL
TAF
KDNL 282320Z 2900/2924 29010KT P6SM SCT080
     FM290600 35006KT P6SM SKC=



000
FTUS42 KCAE 282300
TAFAGS
TAF
KAGS 282320Z 2900/2924 31010KT P6SM SCT080
     FM290300 34005KT P6SM SKC=



000
FTUS42 KCAE 282300
TAFCAE
TAF
KCAE 282320Z 2900/2924 30011KT P6SM SCT080
     FM290600 35006KT P6SM SKC=



    US Dept of Commerce
    National Oceanic and Atmospheric Administration
    National Weather Service
    1325 East West Highway
    Silver Spring, MD 20910
    Page Author: NWS Internet Services Team
Disclaimer
Information Quality
Credits
Glossary
Privacy Policy
Freedom of Information Act (FOIA)
About Us
Career Opportunities